Time;durP1;ratioP1;P1;durP2;ratioP2;P2;SDS_P1;SDS_P2;PMS_P1;PMS_P2;Temp;Humidity;BMP_temperature;BMP_pressure;BME280_temperature;BME280_humidity;BME280_pressure;Samples;Min_cycle;Max_cycle;Signal;HPM_P1;HPM_P2
2022/05/20 00:02:20;;;;;;;16.53;14.83;;;18.20;99.90;;;;;;5035101;28;20265;-67
2022/05/20 00:04:46;;;;;;;16.80;14.87;;;18.10;99.90;;;;;;5034840;28;20194;-67
2022/05/20 00:07:11;;;;;;;18.47;15.20;;;18.00;99.90;;;;;;5035076;28;20252;-67
2022/05/20 00:09:37;;;;;;;21.77;15.63;;;18.00;99.90;;;;;;5034987;28;20172;-67
2022/05/20 00:12:04;;;;;;;16.10;14.50;;;18.10;99.90;;;;;;5034802;28;20241;-67
2022/05/20 00:14:34;;;;;;;17.30;15.07;;;18.10;99.90;;;;;;5033347;28;20191;-67
2022/05/20 00:17:04;;;;;;;19.03;14.47;;;18.10;99.90;;;;;;5034740;28;20191;-67
2022/05/20 00:19:29;;;;;;;18.33;15.20;;;18.10;99.90;;;;;;5034650;28;20274;-67
2022/05/20 00:21:55;;;;;;;16.53;14.90;;;18.10;99.90;;;;;;5035396;28;20585;-67
2022/05/20 00:24:20;;;;;;;16.93;14.47;;;18.10;99.90;;;;;;5033020;28;20205;-67
2022/05/20 00:26:47;;;;;;;17.77;15.70;;;18.10;99.90;;;;;;5034617;28;20167;-67
2022/05/20 00:29:12;;;;;;;16.10;14.40;;;18.20;99.90;;;;;;5033096;28;20175;-67
2022/05/20 00:31:38;;;;;;;17.90;14.77;;;18.20;99.90;;;;;;5034696;28;20179;-67
2022/05/20 00:34:04;;;;;;;15.77;14.20;;;18.10;99.90;;;;;;5034326;28;20199;-67
2022/05/20 00:36:30;;;;;;;17.37;13.60;;;18.00;99.90;;;;;;5034373;28;20183;-67
2022/05/20 00:38:55;;;;;;;16.13;13.43;;;18.00;99.90;;;;;;5034441;28;20176;-67
2022/05/20 00:41:21;;;;;;;18.63;13.73;;;18.00;99.90;;;;;;5034389;28;20263;-67
2022/05/20 00:43:48;;;;;;;16.20;14.10;;;18.00;99.90;;;;;;5034037;28;20207;-67
2022/05/20 00:46:24;;;;;;;17.57;14.40;;;18.00;99.90;;;;;;5033998;28;20172;-67
2022/05/20 00:49:12;;;;;;;17.00;13.67;;;17.90;99.90;;;;;;5033310;28;20171;-67
2022/05/20 00:51:48;;;;;;;17.10;13.73;;;17.90;99.90;;;;;;5032892;28;20184;-67
2022/05/20 00:54:21;;;;;;;19.63;13.53;;;17.90;99.90;;;;;;5034336;28;20195;-68
2022/05/20 00:56:54;;;;;;;15.37;13.73;;;17.90;99.90;;;;;;5033917;28;20230;-67
2022/05/20 00:59:24;;;;;;;19.47;15.60;;;17.90;99.90;;;;;;5033078;28;20550;-67
2022/05/20 01:01:52;;;;;;;15.90;13.97;;;18.00;99.90;;;;;;5033841;28;20768;-67
2022/05/20 01:04:19;;;;;;;16.60;12.87;;;17.90;99.90;;;;;;5032777;28;20222;-67
2022/05/20 01:06:45;;;;;;;14.63;13.13;;;18.00;99.90;;;;;;5032521;28;20179;-66
2022/05/20 01:09:11;;;;;;;18.90;15.17;;;17.90;99.90;;;;;;5032743;28;20660;-67
2022/05/20 01:11:39;;;;;;;17.10;14.83;;;17.80;99.90;;;;;;5033597;28;20184;-67
2022/05/20 01:14:05;;;;;;;18.70;15.60;;;17.80;99.90;;;;;;5033820;28;20198;-67
2022/05/20 01:16:32;;;;;;;16.93;14.90;;;17.80;99.90;;;;;;5033339;28;20179;-67
2022/05/20 01:19:00;;;;;;;20.77;14.97;;;17.80;99.90;;;;;;5038604;28;20211;-67
2022/05/20 01:21:26;;;;;;;19.57;13.60;;;17.70;99.90;;;;;;5052190;28;20210;-69
2022/05/20 01:23:59;;;;;;;23.57;14.27;;;17.60;99.90;;;;;;5053614;28;20183;-66
2022/05/20 01:26:24;;;;;;;22.17;14.77;;;17.40;99.90;;;;;;5032101;28;20172;-67
2022/05/20 01:28:50;;;;;;;19.53;15.57;;;17.30;99.90;;;;;;5033984;28;20175;-67
2022/05/20 01:31:16;;;;;;;19.33;16.10;;;17.20;99.90;;;;;;5031989;28;20541;-66
2022/05/20 01:33:45;;;;;;;20.63;15.27;;;17.00;99.90;;;;;;5033357;28;20192;-67
2022/05/20 01:36:14;;;;;;;17.17;14.57;;;17.00;99.90;;;;;;5033176;28;20176;-67
2022/05/20 01:38:40;;;;;;;22.33;15.70;;;16.90;99.90;;;;;;5033591;28;20534;-67
2022/05/20 01:41:29;;;;;;;24.90;17.83;;;16.90;99.90;;;;;;5033191;28;20180;-67
2022/05/20 01:44:15;;;;;;;22.50;16.77;;;16.70;99.90;;;;;;5033249;28;20606;-66
2022/05/20 01:46:49;;;;;;;23.93;16.27;;;16.70;99.90;;;;;;4991791;28;20191;-66
2022/05/20 01:49:34;;;;;;;24.50;18.23;;;16.70;99.90;;;;;;5013426;28;20164;-66
2022/05/20 01:52:05;;;;;;;27.67;19.60;;;16.60;99.90;;;;;;5013427;28;20180;-67
2022/05/20 01:54:38;;;;;;;26.43;18.47;;;16.70;99.90;;;;;;5014052;28;20207;-66
2022/05/20 01:57:39;;;;;;;25.30;17.87;;;16.70;99.90;;;;;;5033243;28;20175;-67
2022/05/20 02:00:15;;;;;;;27.10;18.03;;;16.80;99.90;;;;;;5032882;28;20174;-67
2022/05/20 02:02:53;;;;;;;22.23;17.60;;;16.90;99.90;;;;;;5032873;28;20282;-66
2022/05/20 02:05:34;;;;;;;21.27;18.03;;;17.00;99.90;;;;;;5032301;28;20213;-67
2022/05/20 02:08:12;;;;;;;27.87;19.10;;;17.00;99.90;;;;;;5032964;28;20171;-67
2022/05/20 02:10:44;;;;;;;20.30;17.70;;;17.10;99.90;;;;;;5032601;28;20175;-66
2022/05/20 02:13:13;;;;;;;23.93;18.47;;;17.20;99.90;;;;;;5033121;28;20191;-66
2022/05/20 02:15:47;;;;;;;22.33;16.93;;;17.30;99.90;;;;;;5032365;28;20183;-66
2022/05/20 02:18:19;;;;;;;22.60;17.20;;;17.30;99.90;;;;;;5032990;28;20671;-66
2022/05/20 02:20:52;;;;;;;23.60;15.93;;;17.30;99.90;;;;;;5031331;28;20179;-66
2022/05/20 02:23:37;;;;;;;22.97;17.30;;;17.30;99.90;;;;;;5032386;28;20210;-67
2022/05/20 02:26:08;;;;;;;24.67;16.60;;;17.20;99.90;;;;;;5032011;28;20176;-67
2022/05/20 02:28:40;;;;;;;25.83;16.20;;;17.20;99.90;;;;;;5032714;28;20569;-66
2022/05/20 02:31:16;;;;;;;20.87;16.07;;;17.20;99.90;;;;;;5032083;28;20178;-66
2022/05/20 02:33:42;;;;;;;24.23;17.87;;;17.30;99.90;;;;;;5032042;28;20664;-67
2022/05/20 02:36:32;;;;;;;19.77;17.37;;;17.20;99.90;;;;;;5030717;28;20520;-66
2022/05/20 02:38:58;;;;;;;21.83;16.80;;;17.20;99.90;;;;;;5011370;28;20272;-67
2022/05/20 02:41:24;;;;;;;22.93;16.57;;;17.30;99.90;;;;;;5012720;28;20266;-66
2022/05/20 02:43:49;;;;;;;20.43;16.00;;;17.30;99.90;;;;;;5031400;28;20207;-67
2022/05/20 02:46:15;;;;;;;24.23;17.13;;;17.20;99.90;;;;;;5030539;28;20186;-67
2022/05/20 02:48:41;;;;;;;22.67;17.17;;;17.10;99.90;;;;;;5030702;28;20573;-67
2022/05/20 02:51:06;;;;;;;22.20;17.77;;;17.10;99.90;;;;;;5031944;28;20249;-66
2022/05/20 02:53:32;;;;;;;26.87;18.77;;;17.20;99.90;;;;;;5031809;28;20595;-66
2022/05/20 02:55:59;;;;;;;20.40;16.93;;;17.20;99.90;;;;;;5031506;28;20182;-67
2022/05/20 03:04:11;;;;;;;23.87;17.00;;;17.30;99.90;;;;;;5032083;28;20278;-66
2022/05/20 03:06:45;;;;;;;23.47;18.57;;;17.30;99.90;;;;;;5031486;28;20489;-67
2022/05/20 03:09:13;;;;;;;22.83;18.03;;;17.30;99.90;;;;;;5031737;28;20167;-66
2022/05/20 03:11:39;;;;;;;21.10;16.37;;;17.20;99.90;;;;;;5031353;28;20233;-67
2022/05/20 03:14:08;;;;;;;22.30;17.10;;;17.20;99.90;;;;;;5031663;28;20194;-67
2022/05/20 03:16:34;;;;;;;22.87;17.57;;;17.20;99.90;;;;;;5031125;28;20188;-66
2022/05/20 03:19:00;;;;;;;22.20;17.07;;;17.20;99.90;;;;;;5031675;28;20171;-67
2022/05/20 03:21:26;;;;;;;21.40;17.57;;;17.20;99.90;;;;;;5031425;28;20262;-66
2022/05/20 03:23:52;;;;;;;22.00;16.53;;;17.20;99.90;;;;;;5031408;28;20578;-67
2022/05/20 03:26:19;;;;;;;23.03;16.83;;;17.30;99.90;;;;;;5030974;28;20176;-66
2022/05/20 03:28:45;;;;;;;23.37;17.47;;;17.30;99.90;;;;;;5031074;28;20179;-68
2022/05/20 03:31:12;;;;;;;22.20;18.00;;;17.30;99.90;;;;;;5030969;28;20171;-67
2022/05/20 03:33:38;;;;;;;23.97;19.53;;;17.30;99.90;;;;;;5031328;28;20303;-67
2022/05/20 03:36:05;;;;;;;25.27;17.37;;;17.40;99.90;;;;;;5030889;28;20668;-67
2022/05/20 03:38:31;;;;;;;22.73;18.47;;;17.50;99.90;;;;;;5031296;28;20171;-67
2022/05/20 03:40:56;;;;;;;22.33;17.03;;;17.40;99.90;;;;;;5031148;28;20538;-67
2022/05/20 03:43:23;;;;;;;23.47;17.90;;;17.40;99.90;;;;;;5031647;28;20222;-67
2022/05/20 03:45:51;;;;;;;23.17;18.30;;;17.40;99.90;;;;;;5030737;28;20660;-67
2022/05/20 03:48:17;;;;;;;24.53;21.03;;;17.40;99.90;;;;;;5029905;28;20167;-67
2022/05/20 03:50:42;;;;;;;23.97;18.67;;;17.50;99.90;;;;;;5031129;28;20186;-67
2022/05/20 03:53:08;;;;;;;24.13;19.37;;;17.40;99.90;;;;;;5030992;28;20192;-67
2022/05/20 03:55:34;;;;;;;25.53;18.67;;;17.40;99.90;;;;;;5030609;28;20265;-67
2022/05/20 03:57:59;;;;;;;24.43;17.67;;;17.40;99.90;;;;;;5031099;28;20183;-67
2022/05/20 04:00:25;;;;;;;24.73;19.13;;;17.40;99.90;;;;;;5030894;28;20191;-66
2022/05/20 04:02:51;;;;;;;25.17;19.70;;;17.40;99.90;;;;;;5030946;28;20250;-66
2022/05/20 04:05:16;;;;;;;28.57;18.37;;;17.40;99.90;;;;;;5030416;28;20637;-66
2022/05/20 04:07:42;;;;;;;27.60;21.77;;;17.40;99.90;;;;;;5030368;28;20226;-67
2022/05/20 04:10:09;;;;;;;27.13;20.30;;;17.40;99.90;;;;;;5029433;28;20246;-67
2022/05/20 04:12:37;;;;;;;28.33;20.27;;;17.50;99.90;;;;;;5031059;28;20193;-66
2022/05/20 04:15:06;;;;;;;30.57;19.97;;;17.50;99.90;;;;;;5030456;28;20226;-67
2022/05/20 04:17:31;;;;;;;25.80;20.27;;;17.60;99.90;;;;;;5029659;28;20218;-66
2022/05/20 04:19:57;;;;;;;26.90;21.23;;;17.60;99.90;;;;;;5029417;28;20203;-66
2022/05/20 04:22:29;;;;;;;28.10;21.13;;;17.50;99.90;;;;;;5029500;28;20736;-67
2022/05/20 04:24:55;;;;;;;24.80;19.77;;;17.50;99.90;;;;;;5030410;28;20199;-66
2022/05/20 04:27:21;;;;;;;28.57;19.67;;;17.50;99.90;;;;;;5030826;28;20606;-67
2022/05/20 04:29:47;;;;;;;27.63;21.50;;;17.50;99.90;;;;;;5030465;28;20206;-66
2022/05/20 04:32:13;;;;;;;28.47;20.67;;;17.60;99.90;;;;;;5031112;28;20253;-67
2022/05/20 04:34:38;;;;;;;26.07;20.13;;;17.70;99.90;;;;;;5028951;28;20235;-67
2022/05/20 04:37:04;;;;;;;24.07;19.23;;;17.80;99.90;;;;;;5030568;28;20657;-67
2022/05/20 04:39:30;;;;;;;26.93;18.47;;;17.80;99.90;;;;;;5031003;28;20168;-68
2022/05/20 04:47:28;;;;;;;26.90;19.17;;;18.00;99.90;;;;;;5034657;28;20178;-67
2022/05/20 04:49:54;;;;;;;25.87;20.03;;;18.20;99.90;;;;;;5033999;28;20205;-66
2022/05/20 04:52:21;;;;;;;23.33;16.70;;;18.10;99.90;;;;;;5034224;28;20175;-67
2022/05/20 04:54:49;;;;;;;23.60;18.50;;;18.20;99.90;;;;;;5033699;28;20200;-67
2022/05/20 04:57:29;;;;;;;21.53;16.80;;;18.10;99.90;;;;;;5033192;28;20672;-67
2022/05/20 05:00:11;;;;;;;24.20;16.73;;;18.20;99.90;;;;;;5032527;28;20656;-67
2022/05/20 05:02:37;;;;;;;23.57;16.83;;;18.20;99.90;;;;;;5034184;28;20685;-67
2022/05/20 05:05:05;;;;;;;26.23;18.23;;;18.20;99.90;;;;;;5033334;28;20178;-69
2022/05/20 05:07:31;;;;;;;23.70;17.97;;;18.30;99.90;;;;;;5033222;28;20530;-67
2022/05/20 05:09:58;;;;;;;21.90;18.20;;;18.40;99.90;;;;;;5032558;28;20270;-67
2022/05/20 05:12:23;;;;;;;26.93;18.53;;;18.50;99.90;;;;;;5033792;28;20234;-67
2022/05/20 05:14:51;;;;;;;21.40;16.93;;;18.60;99.90;;;;;;5033499;28;20625;-67
2022/05/20 05:20:06;;;;;;;20.57;16.57;;;18.60;99.90;;;;;;5034091;28;20233;-67
2022/05/20 05:22:32;;;;;;;24.80;16.60;;;18.60;99.90;;;;;;5032220;28;20673;-67
2022/05/20 05:24:57;;;;;;;22.13;17.63;;;18.60;99.90;;;;;;5039522;28;20197;-67
2022/05/20 05:27:23;;;;;;;22.13;16.43;;;18.70;99.90;;;;;;5053524;28;20179;-67
2022/05/20 05:29:48;;;;;;;21.67;16.50;;;18.80;99.90;;;;;;5053485;28;20179;-67
2022/05/20 05:32:14;;;;;;;18.27;16.23;;;19.00;99.90;;;;;;5053209;28;20243;-67
2022/05/20 05:34:39;;;;;;;22.13;16.47;;;19.10;99.90;;;;;;5032805;28;20279;-67
2022/05/20 05:37:05;;;;;;;21.30;16.77;;;19.30;99.90;;;;;;5033413;28;20176;-67
2022/05/20 05:39:31;;;;;;;21.33;15.93;;;19.40;99.90;;;;;;5033299;28;20187;-67
2022/05/20 05:41:59;;;;;;;17.90;14.80;;;19.50;99.90;;;;;;5033486;28;20281;-67
2022/05/20 05:44:25;;;;;;;21.00;15.23;;;19.60;99.90;;;;;;5032986;28;20341;-67
2022/05/20 05:46:50;;;;;;;18.63;15.43;;;19.60;99.90;;;;;;5033180;28;20254;-67
2022/05/20 05:49:16;;;;;;;21.70;15.93;;;19.60;99.90;;;;;;5031837;28;20187;-68
2022/05/20 05:51:42;;;;;;;22.17;16.83;;;19.80;99.90;;;;;;5032778;28;20186;-67
2022/05/20 05:54:08;;;;;;;18.13;15.57;;;20.10;99.90;;;;;;5032558;28;20203;-67
2022/05/20 05:56:36;;;;;;;20.17;15.13;;;20.40;99.90;;;;;;5032995;28;20214;-67
2022/05/20 05:59:02;;;;;;;17.40;13.83;;;20.80;99.90;;;;;;5032889;28;20179;-67
2022/05/20 06:01:28;;;;;;;16.23;13.97;;;21.30;99.90;;;;;;5031860;28;20330;-67
2022/05/20 06:03:53;;;;;;;18.05;12.73;;;21.80;99.90;;;;;;5032640;28;20282;-67
2022/05/20 06:06:19;;;;;;;14.45;12.98;;;22.20;99.90;;;;;;5031757;28;20175;-67
2022/05/20 06:08:45;;;;;;;17.20;14.27;;;22.30;99.90;;;;;;5032657;28;20183;-67
2022/05/20 06:11:11;;;;;;;17.00;13.45;;;22.60;99.90;;;;;;5032608;28;20645;-67
2022/05/20 06:13:36;;;;;;;15.52;13.85;;;22.90;99.90;;;;;;5033104;28;20301;-68
2022/05/20 06:16:03;;;;;;;16.27;13.93;;;23.30;99.90;;;;;;5032190;28;20672;-67
2022/05/20 06:18:29;;;;;;;16.25;14.07;;;23.60;99.90;;;;;;5032765;28;20171;-67
2022/05/20 06:20:55;;;;;;;15.02;12.95;;;23.80;99.90;;;;;;5032629;28;20360;-68
2022/05/20 06:23:21;;;;;;;18.35;13.20;;;23.80;99.90;;;;;;5032447;28;20727;-67
2022/05/20 06:25:46;;;;;;;18.33;14.52;;;23.90;99.90;;;;;;5031257;28;20270;-67
2022/05/20 06:28:17;;;;;;;16.75;14.63;;;23.90;99.90;;;;;;5032080;28;20203;-68
2022/05/20 06:30:43;;;;;;;15.43;13.02;;;24.00;99.90;;;;;;5032187;28;20175;-67
2022/05/20 06:33:10;;;;;;;18.40;14.85;;;23.90;99.90;;;;;;5031887;28;20271;-67
2022/05/20 06:41:06;;;;;;;20.13;14.20;;;23.60;99.90;;;;;;5032262;28;20238;-67
2022/05/20 06:43:32;;;;;;;16.30;14.32;;;23.80;99.90;;;;;;5031843;28;20207;-67
2022/05/20 06:46:02;;;;;;;18.67;14.70;;;24.10;99.90;;;;;;5031434;28;20265;-67
2022/05/20 06:48:45;;;;;;;25.65;15.43;;;24.40;99.90;;;;;;5032282;28;20268;-67
2022/05/20 06:51:11;;;;;;;19.27;15.52;;;24.40;99.90;;;;;;5031964;28;20171;-67
2022/05/20 06:53:37;;;;;;;20.52;16.88;;;24.40;99.90;;;;;;5032640;28;20199;-67
2022/05/20 06:56:03;;;;;;;18.52;15.10;;;24.40;99.90;;;;;;5031632;28;20190;-67
2022/05/20 06:58:31;;;;;;;20.95;15.95;;;24.60;99.90;;;;;;5030861;28;20182;-67
2022/05/20 07:00:56;;;;;;;22.00;15.65;;;24.90;99.90;;;;;;5031880;28;20207;-67
2022/05/20 07:03:22;;;;;;;19.88;15.43;;;24.90;99.90;;;;;;5031290;28;20234;-67
2022/05/20 07:05:48;;;;;;;20.90;15.00;;;24.70;99.90;;;;;;5029706;28;20194;-66
2022/05/20 07:08:14;;;;;;;19.35;14.85;;;24.20;99.90;;;;;;5027000;28;20229;-67
2022/05/20 07:10:40;;;;;;;20.23;14.70;;;23.90;99.90;;;;;;5032159;28;20172;-67
2022/05/20 07:13:06;;;;;;;21.13;15.68;;;23.70;99.90;;;;;;5030487;28;20195;-67
2022/05/20 07:15:32;;;;;;;21.20;16.48;;;23.60;99.90;;;;;;5031283;28;20186;-67
2022/05/20 07:17:58;;;;;;;18.92;16.23;;;23.40;99.90;;;;;;5031361;28;20184;-67
2022/05/20 07:20:24;;;;;;;21.45;16.70;;;23.30;99.90;;;;;;5031572;28;20220;-67
2022/05/20 07:22:50;;;;;;;20.88;14.85;;;23.20;99.90;;;;;;5031002;28;20227;-67
2022/05/20 07:25:16;;;;;;;24.48;15.48;;;23.30;99.90;;;;;;5031215;28;20203;-67
2022/05/20 07:27:41;;;;;;;21.23;14.82;;;23.50;99.90;;;;;;5029590;28;20179;-66
2022/05/20 07:30:08;;;;;;;20.35;16.00;;;23.50;99.90;;;;;;5031326;28;20237;-65
2022/05/20 07:32:33;;;;;;;17.85;15.15;;;23.50;99.90;;;;;;5031287;28;20191;-66
2022/05/20 07:34:59;;;;;;;18.80;14.20;;;23.50;99.90;;;;;;5031171;28;20671;-65
2022/05/20 07:37:25;;;;;;;14.77;13.10;;;23.50;99.90;;;;;;5031203;28;20317;-66
2022/05/20 07:39:50;;;;;;;19.90;15.18;;;23.50;99.90;;;;;;5031303;28;20172;-66
2022/05/20 07:42:16;;;;;;;16.10;13.45;;;23.90;99.90;;;;;;5031094;28;20202;-66
2022/05/20 07:44:42;;;;;;;16.85;14.60;;;23.90;99.90;;;;;;5030801;28;20875;-66
2022/05/20 07:47:08;;;;;;;18.20;14.35;;;24.20;99.90;;;;;;5031251;28;20163;-66
2022/05/20 07:49:34;;;;;;;17.15;13.73;;;24.70;99.90;;;;;;5031058;28;20675;-66
2022/05/20 07:52:02;;;;;;;14.75;12.10;;;25.10;99.90;;;;;;5031162;28;20171;-66
2022/05/20 07:54:32;;;;;;;14.93;12.70;;;25.60;99.90;;;;;;5029622;28;20214;-66
2022/05/20 07:57:03;;;;;;;18.52;14.13;;;25.70;99.90;;;;;;5031386;28;20661;-66
2022/05/20 07:59:34;;;;;;;20.48;15.25;;;25.70;99.90;;;;;;5031109;28;20583;-66
2022/05/20 08:02:00;;;;;;;17.30;14.68;;;25.80;99.90;;;;;;5031263;28;20191;-66
2022/05/20 08:04:55;;;;;;;16.35;13.93;;;25.60;99.90;;;;;;5030761;28;20191;-66
2022/05/20 08:07:25;;;;;;;21.42;17.20;;;25.50;99.90;;;;;;5028483;28;20222;-66
2022/05/20 08:09:51;;;;;;;21.65;19.08;;;25.50;99.90;;;;;;5030111;28;20172;-66
2022/05/20 08:12:16;;;;;;;19.70;16.35;;;25.60;99.90;;;;;;5027079;28;20188;-66
2022/05/20 08:14:42;;;;;;;28.05;19.42;;;25.40;99.90;;;;;;5011257;28;20279;-66
2022/05/20 08:17:08;;;;;;;22.13;18.73;;;25.20;99.90;;;;;;5013403;28;20242;-66
2022/05/20 08:19:34;;;;;;;25.95;18.73;;;24.80;99.90;;;;;;5015210;28;20177;-66
2022/05/20 08:22:00;;;;;;;24.77;18.02;;;24.50;99.90;;;;;;5014975;28;20199;-66
2022/05/20 08:24:26;;;;;;;23.15;18.65;;;24.20;99.90;;;;;;5031224;28;20203;-66
2022/05/20 08:26:52;;;;;;;23.58;17.80;;;23.90;99.90;;;;;;5052180;28;20552;-66
2022/05/20 08:29:18;;;;;;;21.80;16.02;;;23.90;99.90;;;;;;5050238;28;20189;-66
2022/05/20 08:31:45;;;;;;;20.88;16.23;;;23.80;99.90;;;;;;5034555;28;20186;-66
2022/05/20 08:34:11;;;;;;;23.42;16.80;;;23.70;99.90;;;;;;5034377;28;20891;-66
2022/05/20 08:36:38;;;;;;;19.23;16.05;;;23.60;99.90;;;;;;5034399;28;20214;-66
2022/05/20 08:39:05;;;;;;;20.58;15.77;;;23.60;99.90;;;;;;5033483;28;20187;-67
2022/05/20 08:41:38;;;;;;;26.38;17.58;;;23.50;99.90;;;;;;5034543;28;20194;-67
2022/05/20 08:44:06;;;;;;;21.38;16.05;;;23.60;99.90;;;;;;5034191;28;20253;-66
2022/05/20 08:46:32;;;;;;;20.05;16.23;;;24.00;99.90;;;;;;5033976;28;20665;-67
2022/05/20 08:48:58;;;;;;;20.67;16.70;;;24.60;99.90;;;;;;5034759;28;20179;-67
2022/05/20 08:51:29;;;;;;;16.35;14.23;;;25.10;99.90;;;;;;5034343;28;20190;-67
2022/05/20 08:53:55;;;;;;;19.77;16.40;;;25.80;99.90;;;;;;5034189;28;20195;-67
2022/05/20 08:56:24;;;;;;;19.25;15.45;;;26.20;99.90;;;;;;5033748;28;20229;-67
2022/05/20 08:59:03;;;;;;;20.65;15.27;;;26.40;99.90;;;;;;5032723;28;20176;-67
2022/05/20 09:01:30;;;;;;;16.85;13.73;;;26.70;99.90;;;;;;5014426;28;20563;-67
2022/05/20 09:03:56;;;;;;;15.45;12.88;;;26.90;99.90;;;;;;5014132;28;20678;-67
2022/05/20 09:06:23;;;;;;;16.00;13.63;;;27.30;99.90;;;;;;5014043;28;20227;-67
2022/05/20 09:09:10;;;;;;;16.55;14.80;;;27.60;99.90;;;;;;5027001;28;20573;-67
2022/05/20 09:11:36;;;;;;;17.48;13.30;;;27.60;99.90;;;;;;5032606;28;20270;-67
2022/05/20 09:17:21;;;;;;;19.23;14.15;;;28.20;99.90;;;;;;5034061;28;20241;-67
2022/05/20 09:20:01;;;;;;;15.63;14.02;;;27.90;99.90;;;;;;5031966;28;20183;-66
2022/05/20 09:22:33;;;;;;;14.43;13.02;;;27.70;99.90;;;;;;5033352;28;20203;-67
2022/05/20 09:24:59;;;;;;;17.30;14.70;;;27.40;99.90;;;;;;5033556;28;20175;-66
2022/05/20 09:27:31;;;;;;;16.92;14.20;;;27.30;99.90;;;;;;5030988;28;20179;-66
2022/05/20 09:30:05;;;;;;;17.90;14.35;;;27.20;99.90;;;;;;5044668;28;20163;-66
2022/05/20 09:32:58;;;;;;;15.82;12.95;;;27.50;99.90;;;;;;5035951;28;20513;-66
2022/05/20 09:35:24;;;;;;;13.68;11.52;;;27.70;99.90;;;;;;5033153;28;20171;-66
2022/05/20 09:37:52;;;;;;;15.25;13.32;;;27.80;99.90;;;;;;5033282;28;20214;-66
2022/05/20 09:40:34;;;;;;;15.35;13.20;;;27.60;99.90;;;;;;5033378;28;20194;-66
2022/05/20 09:43:09;;;;;;;14.35;11.45;;;27.70;99.90;;;;;;5032112;28;20215;-66
2022/05/20 09:45:47;;;;;;;16.48;11.10;;;27.80;99.90;;;;;;5013245;28;20168;-66
2022/05/20 09:48:38;;;;;;;14.52;9.55;;;28.10;99.90;;;;;;5023668;28;20641;-66
2022/05/20 09:51:19;;;;;;;12.75;10.55;;;28.50;99.90;;;;;;5014770;28;20294;-66
2022/05/20 09:54:00;;;;;;;10.82;9.65;;;29.00;99.90;;;;;;5033005;28;20278;-66
2022/05/20 09:56:31;;;;;;;13.98;11.52;;;29.50;99.90;;;;;;5032946;28;20519;-66
2022/05/20 09:59:21;;;;;;;15.40;11.63;;;29.40;99.90;;;;;;5032895;28;20275;-66
2022/05/20 10:02:04;;;;;;;11.57;10.02;;;29.50;99.90;;;;;;5029488;28;20198;-66
2022/05/20 10:04:41;;;;;;;13.32;10.55;;;29.90;99.90;;;;;;5032309;28;20195;-67
2022/05/20 10:07:13;;;;;;;11.40;9.02;;;30.10;99.90;;;;;;5031720;28;20279;-66
2022/05/20 10:09:46;;;;;;;11.90;9.25;;;29.90;99.90;;;;;;5033057;28;20175;-66
2022/05/20 10:12:34;;;;;;;11.60;9.00;;;29.90;99.90;;;;;;5032788;28;20179;-66
2022/05/20 10:15:29;;;;;;;11.85;9.30;;;29.90;99.90;;;;;;5012931;28;20629;-66
2022/05/20 10:18:07;;;;;;;10.93;8.73;;;30.10;99.90;;;;;;5017883;28;20233;-66
2022/05/20 10:20:39;;;;;;;10.10;8.57;;;30.20;99.90;;;;;;5032752;28;20661;-66
2022/05/20 10:23:28;;;;;;;8.85;7.80;;;30.60;99.90;;;;;;5032516;28;20629;-66
2022/05/20 10:26:03;;;;;;;9.70;8.40;;;31.20;99.90;;;;;;5032280;28;20601;-66
2022/05/20 10:34:39;;;;;;;8.73;7.55;;;30.80;99.90;;;;;;5032289;28;20237;-66
2022/05/20 10:37:21;;;;;;;9.85;8.43;;;30.90;99.90;;;;;;5032125;28;20250;-66
2022/05/20 10:40:23;;;;;;;9.90;8.07;;;31.00;99.90;;;;;;5032377;28;20171;-66
2022/05/20 10:43:10;;;;;;;7.90;7.00;;;30.80;99.90;;;;;;5032034;28;20202;-66
2022/05/20 10:49:36;;;;;;;8.65;6.15;;;32.10;99.90;;;;;;4990722;28;20181;-66
2022/05/20 10:52:34;;;;;;;8.02;7.15;;;32.40;99.90;;;;;;4990179;28;20191;-67
2022/05/20 10:55:36;;;;;;;6.85;6.25;;;32.20;99.90;;;;;;5021748;28;20203;-67
2022/05/20 10:58:17;;;;;;;7.57;6.78;;;31.70;99.90;;;;;;5031653;28;20185;-66
2022/05/20 11:00:50;;;;;;;7.90;6.63;;;31.40;99.90;;;;;;5032161;28;20681;-66
2022/05/20 11:03:25;;;;;;;7.65;6.95;;;30.80;99.90;;;;;;5031528;28;20215;-66
2022/05/20 11:06:08;;;;;;;7.95;7.20;;;30.30;99.90;;;;;;5031723;28;20159;-67
2022/05/20 11:08:58;;;;;;;9.60;8.80;;;29.60;99.90;;;;;;5012321;28;20168;-67
2022/05/20 11:11:55;;;;;;;12.50;11.70;;;29.20;99.90;;;;;;5014019;28;20657;-67
2022/05/20 11:14:23;;;;;;;7.68;6.97;;;28.90;99.90;;;;;;5030289;28;20199;-67
2022/05/20 11:17:19;;;;;;;8.73;7.93;;;28.60;99.90;;;;;;5031381;28;20250;-67
2022/05/20 11:20:18;;;;;;;8.70;8.00;;;28.50;99.90;;;;;;5031811;28;20595;-67
2022/05/20 11:23:00;;;;;;;7.70;7.03;;;28.20;99.90;;;;;;5031654;28;20317;-67
2022/05/20 11:25:47;;;;;;;7.88;7.07;;;27.90;99.90;;;;;;5031441;28;20172;-67
2022/05/20 11:28:43;;;;;;;7.38;6.75;;;27.80;99.90;;;;;;5031117;28;20648;-68
2022/05/20 11:31:27;;;;;;;9.45;8.57;;;28.00;99.90;;;;;;5031434;28;20172;-67
2022/05/20 11:34:13;;;;;;;7.80;7.10;;;28.10;99.90;;;;;;5031589;28;20201;-67
2022/05/20 11:37:00;;;;;;;8.40;7.80;;;28.60;99.90;;;;;;5031046;28;20179;-67
2022/05/20 11:39:56;;;;;;;7.75;6.97;;;28.80;99.90;;;;;;5031880;28;20179;-66
2022/05/20 11:42:55;;;;;;;9.00;8.10;;;29.10;99.90;;;;;;5011543;28;20274;-67
2022/05/20 11:45:23;;;;;;;7.18;6.68;;;29.20;99.90;;;;;;5018150;28;20210;-66
2022/05/20 11:47:49;;;;;;;6.88;6.38;;;29.80;99.90;;;;;;5031571;28;20703;-67
2022/05/20 11:51:05;;;;;;;6.20;5.70;;;30.40;99.90;;;;;;5031546;28;20183;-67
2022/05/20 11:53:42;;;;;;;6.38;5.78;;;30.90;99.90;;;;;;5017631;28;20207;-67
2022/05/20 11:56:21;;;;;;;7.75;6.25;;;31.00;99.90;;;;;;5035634;28;20175;-67
2022/05/20 11:59:12;;;;;;;7.00;6.50;;;30.50;99.90;;;;;;5037826;28;20191;-66
2022/05/20 12:01:38;;;;;;;8.27;7.57;;;29.80;99.90;;;;;;5029731;28;20552;-66
2022/05/20 12:04:06;;;;;;;6.70;6.13;;;28.50;99.90;;;;;;5037432;28;20605;-67
2022/05/20 12:06:35;;;;;;;8.23;7.53;;;27.90;99.90;;;;;;5037616;28;20171;-67
2022/05/20 12:09:04;;;;;;;8.05;7.45;;;27.50;99.90;;;;;;5037806;28;20317;-67
2022/05/20 12:11:32;;;;;;;8.20;7.50;;;27.10;99.90;;;;;;5037924;28;20531;-67
2022/05/20 12:14:03;;;;;;;7.07;6.47;;;27.00;99.90;;;;;;5037404;28;20559;-67
2022/05/20 12:16:29;;;;;;;8.00;7.22;;;26.80;99.90;;;;;;5037389;28;20636;-66
2022/05/20 12:24:40;;;;;;;9.48;8.82;;;26.00;99.90;;;;;;5037126;28;20203;-67
2022/05/20 12:27:24;;;;;;;7.78;7.10;;;25.60;99.90;;;;;;5035975;28;20533;-66
2022/05/20 12:30:05;;;;;;;8.27;7.50;;;25.30;99.90;;;;;;5037979;28;20175;-66
2022/05/20 12:32:37;;;;;;;10.30;7.93;;;25.20;99.90;;;;;;5036878;28;20261;-67
2022/05/20 12:35:20;;;;;;;8.40;7.65;;;25.00;99.90;;;;;;5037237;28;20614;-67
2022/05/20 12:37:46;;;;;;;8.68;7.80;;;24.80;99.90;;;;;;5037407;28;20270;-66
2022/05/20 12:40:26;;;;;;;8.30;7.60;;;24.50;99.90;;;;;;5037198;28;20262;-65
2022/05/20 12:43:12;;;;;;;10.48;9.65;;;24.10;99.90;;;;;;5037192;28;20226;-68
2022/05/20 12:45:55;;;;;;;10.10;9.20;;;23.60;99.90;;;;;;5036546;28;20198;-67
2022/05/20 12:48:30;;;;;;;11.73;10.65;;;22.70;99.90;;;;;;5037425;28;20193;-68
2022/05/20 12:50:59;;;;;;;12.80;11.63;;;22.10;99.90;;;;;;5048072;28;20182;-67
2022/05/20 12:53:29;;;;;;;13.17;12.03;;;21.70;99.90;;;;;;5055927;28;20209;-67
2022/05/20 12:55:56;;;;;;;14.63;13.23;;;21.60;99.90;;;;;;5045522;28;20193;-66
2022/05/20 12:58:27;;;;;;;15.13;13.83;;;21.60;99.90;;;;;;5037044;28;20189;-67
2022/05/20 13:00:56;;;;;;;14.63;13.50;;;21.60;99.90;;;;;;5037081;28;20489;-66
2022/05/20 13:03:31;;;;;;;18.33;15.87;;;21.60;99.90;;;;;;5034157;28;20206;-68
2022/05/20 13:06:00;;;;;;;15.57;14.10;;;21.60;99.90;;;;;;5032625;28;20171;-67
2022/05/20 13:08:30;;;;;;;17.17;15.57;;;21.60;99.90;;;;;;5033913;28;20171;-68
2022/05/20 13:11:05;;;;;;;18.63;16.93;;;21.50;99.90;;;;;;5033984;28;20176;-67
2022/05/20 13:13:31;;;;;;;16.30;14.90;;;21.40;99.90;;;;;;5033780;28;20230;-67
2022/05/20 13:15:59;;;;;;;16.47;15.37;;;21.60;99.90;;;;;;5032601;28;20206;-67
2022/05/20 13:18:28;;;;;;;14.57;13.30;;;21.60;99.90;;;;;;5033509;28;20187;-68
2022/05/20 13:20:56;;;;;;;12.23;11.35;;;21.80;99.90;;;;;;5034236;28;20602;-69
2022/05/20 13:23:30;;;;;;;11.17;10.37;;;22.00;99.90;;;;;;5031956;28;20211;-68
2022/05/20 13:25:56;;;;;;;12.02;11.02;;;22.20;99.90;;;;;;5033468;28;20163;-68
2022/05/20 13:28:42;;;;;;;9.77;9.07;;;22.50;99.90;;;;;;5033241;28;20171;-67
2022/05/20 13:31:11;;;;;;;10.13;9.13;;;22.80;99.90;;;;;;5032648;28;20232;-68